Time;durP1;ratioP1;P1;durP2;ratioP2;P2;SDS_P1;SDS_P2;PMS_P1;PMS_P2;Temp;Humidity;BMP_temperature;BMP_pressure;BME280_temperature;BME280_humidity;BME280_pressure;Samples;Min_cycle;Max_cycle;Signal;HPM_P1;HPM_P2
2022/10/02 00:01:56;;;;;;;45.15;25.10;;;;;;;28.01;73.98;98107.72;4904501;29;20776;-65
2022/10/02 00:04:46;;;;;;;37.42;24.00;;;;;;;27.91;74.52;98106.19;4908483;29;20439;-65
2022/10/02 00:07:39;;;;;;;36.33;23.88;;;;;;;28.22;73.61;98129.66;4908264;29;20063;-65
2022/10/02 00:10:44;;;;;;;39.38;23.77;;;;;;;28.11;73.73;98147.81;4908758;29;20067;-65
2022/10/02 00:13:40;;;;;;;41.08;25.48;;;;;;;27.89;74.61;98138.81;4909109;29;20056;-65
2022/10/02 00:16:38;;;;;;;38.10;26.10;;;;;;;27.74;75.20;98131.19;4908899;29;20044;-65
2022/10/02 00:19:20;;;;;;;39.85;26.17;;;;;;;27.81;74.93;98127.88;4908370;29;20054;-65
2022/10/02 00:22:30;;;;;;;39.45;25.45;;;;;;;28.08;74.18;98149.31;4907672;29;20085;-63
2022/10/02 00:25:20;;;;;;;33.57;25.43;;;;;;;28.16;74.19;98150.34;4893969;29;20067;-63
2022/10/02 00:28:18;;;;;;;54.88;29.20;;;;;;;27.60;75.99;98167.34;4909171;29;20351;-63
2022/10/02 00:31:18;;;;;;;49.85;30.85;;;;;;;27.65;76.07;98163.56;4902318;29;20044;-63
2022/10/02 00:34:25;;;;;;;49.47;31.17;;;;;;;27.68;76.17;98165.63;4908389;29;20163;-63
2022/10/02 00:37:21;;;;;;;53.83;31.77;;;;;;;27.47;76.85;98177.50;4906469;29;20048;-64
2022/10/02 00:40:42;;;;;;;47.10;31.85;;;;;;;27.53;76.89;98178.09;4906262;29;20032;-64
2022/10/02 00:43:42;;;;;;;46.30;30.17;;;;;;;27.73;76.33;98171.75;4899435;29;20044;-65
2022/10/02 00:46:26;;;;;;;46.00;30.20;;;;;;;27.80;75.50;98167.63;4909708;29;20163;-64
2022/10/02 00:49:30;;;;;;;43.83;30.05;;;;;;;27.70;75.75;98172.41;4906841;29;20062;-64
2022/10/02 00:52:27;;;;;;;39.35;29.27;;;;;;;27.65;75.56;98174.56;4912348;28;20048;-63
2022/10/02 00:55:18;;;;;;;46.40;28.05;;;;;;;27.70;75.66;98177.13;4916318;29;20048;-64
2022/10/02 00:58:34;;;;;;;42.05;28.27;;;;;;;27.82;75.14;98179.09;4922525;29;20052;-67
2022/10/02 01:01:48;;;;;;;51.45;26.48;;;;;;;27.78;75.34;98190.00;4909746;29;20072;-68
2022/10/02 01:04:38;;;;;;;36.08;26.63;;;;;;;27.68;76.20;98179.44;4906134;29;20052;-68
2022/10/02 01:07:27;;;;;;;39.67;25.83;;;;;;;27.85;75.57;98179.22;4897480;29;20039;-68
2022/10/02 01:10:11;;;;;;;39.22;26.65;;;;;;;27.76;75.02;98186.00;4909712;29;20059;-68
2022/10/02 01:13:00;;;;;;;35.67;25.02;;;;;;;27.89;74.40;98180.19;4908364;29;20131;-68
2022/10/02 01:16:04;;;;;;;40.25;25.63;;;;;;;27.84;75.03;98179.56;4907245;29;20044;-69
2022/10/02 01:18:53;;;;;;;37.67;25.58;;;;;;;27.69;75.00;98186.56;4910875;29;20123;-70
2022/10/02 01:21:46;;;;;;;40.35;24.73;;;;;;;27.72;75.31;98186.69;4901542;29;20052;-69
2022/10/02 01:24:52;;;;;;;37.20;23.30;;;;;;;27.80;75.72;98190.50;4925041;29;20088;-70
2022/10/02 01:27:42;;;;;;;36.28;24.08;;;;;;;27.70;75.70;98182.66;4872681;29;20048;-70
2022/10/02 01:30:34;;;;;;;41.92;26.13;;;;;;;27.67;75.39;98188.84;4876041;29;20408;-69
2022/10/02 01:33:18;;;;;;;42.35;27.05;;;;;;;27.77;74.84;98187.63;4923011;29;20066;-69
2022/10/02 01:36:15;;;;;;;51.85;26.20;;;;;;;27.89;75.50;98190.41;4907595;29;20078;-70
2022/10/02 01:39:04;;;;;;;44.55;25.17;;;;;;;28.01;75.05;98197.91;4908944;29;20115;-70
2022/10/02 01:41:50;;;;;;;43.65;25.33;;;;;;;27.91;75.32;98194.44;4877037;29;20052;-70
2022/10/02 01:44:39;;;;;;;42.92;26.20;;;;;;;27.94;74.72;98203.19;4882747;29;20420;-69
2022/10/02 01:47:50;;;;;;;35.20;24.08;;;;;;;28.05;74.66;98198.81;4910502;29;20471;-69
2022/10/02 01:51:19;;;;;;;36.85;25.63;;;;;;;28.19;74.35;98199.31;4910533;29;20055;-69
2022/10/02 01:54:26;;;;;;;38.92;25.85;;;;;;;28.34;74.26;98197.00;4861697;29;20060;-70
2022/10/02 01:57:35;;;;;;;37.03;26.15;;;;;;;28.08;73.90;98195.41;4891267;29;20053;-69
2022/10/02 02:00:28;;;;;;;40.13;26.38;;;;;;;28.07;74.18;98200.13;4890671;29;20107;-69
2022/10/02 02:03:26;;;;;;;42.78;25.83;;;;;;;28.25;73.73;98202.66;4902974;29;20124;-70
2022/10/02 02:06:33;;;;;;;39.67;25.85;;;;;;;28.48;73.23;98206.56;4886904;29;20056;-70
2022/10/02 02:09:43;;;;;;;37.85;25.75;;;;;;;28.66;72.70;98204.44;4890387;29;20090;-69
2022/10/02 02:12:47;;;;;;;41.70;25.67;;;;;;;28.55;72.81;98216.25;4873442;29;20056;-69
2022/10/02 02:15:45;;;;;;;39.45;25.45;;;;;;;28.57;73.02;98219.50;4891054;29;20102;-70
2022/10/02 02:18:55;;;;;;;38.88;26.08;;;;;;;28.54;72.66;98215.47;4891279;29;20516;-69
2022/10/02 02:22:03;;;;;;;41.95;26.95;;;;;;;28.57;72.16;98230.53;4890810;29;20666;-69
2022/10/02 02:25:08;;;;;;;47.83;25.45;;;;;;;28.86;71.12;98226.72;4890845;29;20044;-70
2022/10/02 02:28:03;;;;;;;50.90;26.65;;;;;;;28.70;71.06;98238.47;4871917;29;20041;-69
2022/10/02 02:30:56;;;;;;;36.22;26.10;;;;;;;29.04;70.54;98241.91;4872221;29;20044;-70
2022/10/02 02:34:11;;;;;;;35.25;25.05;;;;;;;29.30;70.24;98246.22;4872702;29;20420;-70
2022/10/02 02:37:07;;;;;;;42.88;25.83;;;;;;;29.22;70.47;98250.75;4881336;29;20040;-69
2022/10/02 02:40:05;;;;;;;44.33;25.92;;;;;;;29.26;70.13;98250.84;4890621;29;20131;-70
2022/10/02 02:42:54;;;;;;;43.22;26.52;;;;;;;29.33;70.50;98253.00;4891167;29;20048;-70
2022/10/02 02:46:01;;;;;;;46.22;26.38;;;;;;;29.19;71.22;98256.16;4890862;29;20472;-69
2022/10/02 02:48:43;;;;;;;39.72;25.80;;;;;;;29.44;70.08;98257.69;4891239;29;20064;-70
2022/10/02 02:51:47;;;;;;;44.45;26.67;;;;;;;29.35;70.42;98251.53;4891459;29;20103;-70
2022/10/02 02:54:56;;;;;;;38.67;26.73;;;;;;;29.69;69.24;98257.59;4909365;29;20059;-69
2022/10/02 02:58:02;;;;;;;36.90;24.70;;;;;;;29.76;68.01;98268.09;4909111;29;20052;-71
2022/10/02 03:00:51;;;;;;;37.78;25.05;;;;;;;29.66;68.12;98269.38;4889746;29;20429;-70
2022/10/02 03:03:33;;;;;;;41.55;24.98;;;;;;;29.48;68.50;98261.38;4890102;29;20056;-69
2022/10/02 03:06:22;;;;;;;37.63;25.55;;;;;;;29.72;68.16;98267.16;4890540;29;20049;-69
2022/10/02 03:09:09;;;;;;;42.00;25.52;;;;;;;30.03;67.50;98272.78;4892808;29;20141;-70
2022/10/02 03:12:03;;;;;;;39.60;22.95;;;;;;;30.18;66.52;98274.00;4894068;29;20067;-69
2022/10/02 03:15:22;;;;;;;35.85;23.95;;;;;;;30.26;66.53;98283.28;4908809;29;20044;-69
2022/10/02 03:18:50;;;;;;;32.90;23.58;;;;;;;30.38;65.93;98293.50;4901387;29;20512;-68
2022/10/02 03:21:41;;;;;;;43.58;22.95;;;;;;;30.21;66.56;98300.13;4894465;29;20832;-69
2022/10/02 03:24:53;;;;;;;37.97;22.67;;;;;;;30.32;66.13;98284.66;4911516;29;20604;-69
2022/10/02 03:27:48;;;;;;;33.03;21.75;;;;;;;30.54;66.41;98296.28;4906942;29;20051;-69
2022/10/02 03:30:39;;;;;;;38.78;21.63;;;;;;;30.70;64.02;98296.28;4907238;29;20108;-68
2022/10/02 03:33:30;;;;;;;39.40;22.90;;;;;;;30.78;64.66;98295.28;4884566;29;20824;-71
2022/10/02 03:36:20;;;;;;;36.22;23.23;;;;;;;30.29;65.31;98303.94;4887466;29;20060;-70
2022/10/02 03:39:09;;;;;;;45.65;23.25;;;;;;;30.69;66.65;98298.25;4892069;29;20645;-69
2022/10/02 03:42:08;;;;;;;38.25;23.80;;;;;;;30.68;65.17;98301.38;4894266;29;20052;-68
2022/10/02 03:44:57;;;;;;;32.40;23.42;;;;;;;30.98;63.34;98305.31;4902279;29;20044;-69
2022/10/02 03:47:39;;;;;;;42.30;24.63;;;;;;;31.16;64.41;98299.38;4896155;29;20131;-67
2022/10/02 03:50:28;;;;;;;37.17;22.83;;;;;;;31.29;64.98;98306.41;4893452;29;20057;-69
2022/10/02 03:53:28;;;;;;;37.55;22.92;;;;;;;31.48;62.77;98310.41;4900932;28;20057;-69
2022/10/02 03:56:44;;;;;;;30.92;21.58;;;;;;;31.66;61.23;98311.56;4873658;29;20552;-68
2022/10/02 03:59:46;;;;;;;40.63;23.80;;;;;;;31.76;61.66;98313.78;4881528;29;20052;-70
2022/10/02 04:03:22;;;;;;;44.85;23.52;;;;;;;32.02;61.34;98312.34;4893184;29;20051;-70
2022/10/02 04:06:22;;;;;;;43.00;23.42;;;;;;;32.25;61.96;98308.78;4819064;29;20054;-69
2022/10/02 04:09:29;;;;;;;38.63;22.02;;;;;;;32.47;57.96;98310.00;4892499;29;20144;-68
2022/10/02 04:12:35;;;;;;;33.95;18.85;;;;;;;33.01;54.87;98310.91;4892519;29;20659;-69
2022/10/02 04:15:56;;;;;;;32.38;18.90;;;;;;;33.46;54.28;98303.63;4892691;29;20064;-69
2022/10/02 04:19:03;;;;;;;34.67;18.17;;;;;;;33.27;53.18;98308.16;4892753;29;20056;-69
2022/10/02 04:22:01;;;;;;;31.52;17.35;;;;;;;34.02;52.35;98304.75;4892791;29;20048;-70
2022/10/02 04:25:19;;;;;;;27.08;18.25;;;;;;;34.36;50.38;98313.88;4892916;29;20056;-69
2022/10/02 04:28:20;;;;;;;36.60;18.13;;;;;;;34.85;52.31;98304.38;4892911;29;20060;-69
2022/10/02 04:31:18;;;;;;;36.92;17.13;;;;;;;35.43;52.20;98311.16;4892610;29;20056;-68
2022/10/02 04:34:12;;;;;;;32.60;17.27;;;;;;;35.56;48.51;98303.25;4892977;29;20060;-70
2022/10/02 04:37:30;;;;;;;30.80;16.55;;;;;;;35.85;49.81;98309.00;4878054;29;20054;-70
2022/10/02 04:40:53;;;;;;;32.88;16.05;;;;;;;36.29;48.05;98316.31;4891149;29;20147;-69
2022/10/02 04:43:54;;;;;;;38.95;18.48;;;;;;;36.17;47.75;98313.88;4892354;29;20045;-69
2022/10/02 04:47:33;;;;;;;33.10;16.92;;;;;;;36.56;46.72;98307.56;4893253;29;20120;-69
2022/10/02 04:50:29;;;;;;;38.72;17.88;;;;;;;37.01;46.82;98316.34;4796579;29;20058;-69
2022/10/02 04:53:39;;;;;;;35.40;15.52;;;;;;;37.46;42.85;98311.09;4797828;29;20074;-68
2022/10/02 04:56:39;;;;;;;26.48;13.43;;;;;;;37.48;43.01;98314.28;4891722;29;20049;-69
2022/10/02 05:00:03;;;;;;;26.17;14.10;;;;;;;37.60;40.60;98315.84;4900976;29;20056;-68
2022/10/02 05:03:04;;;;;;;40.88;14.30;;;;;;;37.48;40.19;98311.50;4891718;29;20655;-68
2022/10/02 05:06:16;;;;;;;27.60;15.73;;;;;;;38.15;40.45;98320.06;4879221;29;20041;-68
2022/10/02 05:09:22;;;;;;;31.75;15.07;;;;;;;37.84;40.97;98317.00;4906548;29;20134;-68
2022/10/02 05:12:11;;;;;;;28.42;15.02;;;;;;;37.86;42.77;98308.97;4921953;29;20202;-67
2022/10/02 05:15:03;;;;;;;33.60;16.10;;;;;;;38.14;41.43;98308.06;4883329;29;20138;-68
2022/10/02 05:18:11;;;;;;;35.90;15.65;;;;;;;38.14;42.16;98302.47;4910412;29;20082;-68
2022/10/02 05:21:06;;;;;;;35.47;15.77;;;;;;;37.67;42.92;98309.47;4911011;29;20060;-68
2022/10/02 05:24:22;;;;;;;31.02;13.70;;;;;;;37.81;40.88;98298.19;4908699;29;20048;-68
2022/10/02 05:27:28;;;;;;;24.85;13.40;;;;;;;38.04;42.23;98306.06;4908923;29;20043;-68
2022/10/02 05:30:18;;;;;;;31.88;13.23;;;;;;;38.05;40.64;98304.09;4910526;29;20058;-70
2022/10/02 05:33:51;;;;;;;35.58;11.50;;;;;;;38.05;39.19;98306.91;4909470;29;20116;-70
2022/10/02 05:36:46;;;;;;;25.90;12.70;;;;;;;37.77;38.79;98294.63;4862572;29;20054;-71
2022/10/02 05:40:00;;;;;;;31.48;12.98;;;;;;;37.55;38.72;98300.28;4910437;29;20052;-70
2022/10/02 05:43:12;;;;;;;31.77;13.60;;;;;;;38.32;38.83;98296.72;4890533;29;20067;-71
2022/10/02 05:45:58;;;;;;;39.85;12.93;;;;;;;38.38;38.50;98300.69;4891561;29;20488;-71
2022/10/02 05:49:02;;;;;;;24.95;10.30;;;;;;;38.63;39.37;98294.13;4891702;29;20048;-70
2022/10/02 05:52:03;;;;;;;22.23;11.07;;;;;;;38.18;40.85;98302.44;4908892;29;20491;-70
2022/10/02 05:55:09;;;;;;;21.05;10.15;;;;;;;38.22;37.00;98297.59;4909405;29;20044;-71
2022/10/02 05:58:20;;;;;;;20.70;10.68;;;;;;;38.34;36.25;98285.91;4909958;29;20054;-70
2022/10/02 06:01:43;;;;;;;19.45;9.88;;;;;;;38.73;38.78;98287.63;4908266;29;20472;-70
2022/10/02 06:04:40;;;;;;;26.30;10.55;;;;;;;37.78;38.38;98288.59;4910182;29;20051;-70
2022/10/02 06:07:26;;;;;;;24.73;10.27;;;;;;;38.02;36.31;98285.28;4891460;29;20055;-70
2022/10/02 06:10:45;;;;;;;23.63;10.05;;;;;;;38.50;40.16;98276.16;4897762;29;20569;-70
2022/10/02 06:13:42;;;;;;;25.38;10.70;;;;;;;38.25;37.07;98274.34;4908271;29;20064;-71
2022/10/02 06:17:17;;;;;;;20.88;9.70;;;;;;;38.27;37.04;98266.31;4891746;29;20350;-70
2022/10/02 06:20:20;;;;;;;18.75;9.63;;;;;;;37.78;37.05;98266.22;4905343;29;20048;-70
2022/10/02 06:23:42;;;;;;;19.23;8.55;;;;;;;38.15;36.01;98261.22;4899095;29;20063;-71
2022/10/02 06:27:05;;;;;;;18.77;7.85;;;;;;;38.35;37.98;98251.06;4909051;29;20139;-71
2022/10/02 06:29:59;;;;;;;16.38;7.55;;;;;;;38.13;34.04;98255.22;4900083;29;20127;-71
2022/10/02 06:32:55;;;;;;;18.45;9.32;;;;;;;38.14;35.21;98240.00;4893757;29;20759;-70
2022/10/02 06:36:24;;;;;;;19.80;7.82;;;;;;;37.74;34.38;98239.41;4908165;29;20600;-70
2022/10/02 06:39:22;;;;;;;16.80;7.63;;;;;;;38.21;38.54;98239.94;4908858;29;20103;-70
2022/10/02 06:42:21;;;;;;;24.25;7.45;;;;;;;38.15;35.32;98236.00;4909001;29;20536;-70
2022/10/02 06:45:20;;;;;;;13.23;6.72;;;;;;;38.24;34.98;98224.34;4907524;29;20059;-71
2022/10/02 06:48:31;;;;;;;13.27;6.72;;;;;;;38.04;32.88;98233.22;4908456;29;20460;-70
2022/10/02 06:51:27;;;;;;;11.57;5.50;;;;;;;38.06;31.50;98227.22;4894238;29;20048;-70
2022/10/02 06:54:36;;;;;;;13.05;5.55;;;;;;;38.08;31.66;98219.22;4897948;28;20056;-70
2022/10/02 06:58:02;;;;;;;16.58;6.30;;;;;;;38.09;32.51;98215.22;4905790;29;20146;-68
2022/10/02 07:01:11;;;;;;;19.20;7.15;;;;;;;38.15;32.22;98216.38;4905114;29;20050;-68
2022/10/02 07:04:21;;;;;;;15.40;6.28;;;;;;;38.48;32.13;98203.69;4904191;29;20087;-68
2022/10/02 07:07:21;;;;;;;14.73;5.72;;;;;;;38.38;32.74;98201.78;4908297;29;20048;-69
2022/10/02 07:10:37;;;;;;;13.60;5.40;;;;;;;37.92;32.30;98206.50;4894534;29;20040;-73
2022/10/02 07:13:44;;;;;;;12.95;5.72;;;;;;;38.13;33.02;98196.38;4911754;29;20146;-74
2022/10/02 07:17:03;;;;;;;8.63;4.88;;;;;;;38.20;31.30;98196.34;4908688;29;20575;-71
2022/10/02 07:20:18;;;;;;;6.53;4.60;;;;;;;37.68;30.84;98191.44;4895310;29;20059;-73
2022/10/02 07:23:16;;;;;;;12.35;4.80;;;;;;;37.75;32.74;98190.59;4913623;29;20391;-71
2022/10/02 07:26:26;;;;;;;10.75;3.85;;;;;;;37.90;29.00;98197.72;4909714;29;20076;-71
2022/10/02 07:29:26;;;;;;;13.00;4.32;;;;;;;38.01;29.24;98186.44;4912654;29;20055;-73
2022/10/02 07:32:40;;;;;;;10.07;4.28;;;;;;;38.18;27.58;98179.13;4911393;29;20626;-74
2022/10/02 07:35:26;;;;;;;12.60;3.65;;;;;;;37.83;30.33;98175.34;4909577;29;20076;-73
2022/10/02 07:38:48;;;;;;;12.23;2.95;;;;;;;37.81;27.45;98174.97;4912439;29;20051;-73
2022/10/02 07:42:15;;;;;;;9.93;4.03;;;;;;;37.81;28.06;98170.16;4913378;29;20040;-73
2022/10/02 07:45:34;;;;;;;7.90;3.72;;;;;;;37.71;27.56;98161.84;4894526;29;20059;-73
2022/10/02 07:48:59;;;;;;;9.73;3.13;;;;;;;37.90;26.35;98157.72;4909788;29;20071;-74
2022/10/02 07:52:11;;;;;;;14.77;3.75;;;;;;;37.76;29.54;98145.41;4878711;29;20091;-72
2022/10/02 07:55:26;;;;;;;6.40;3.03;;;;;;;37.52;26.68;98144.31;4910944;29;20040;-73
2022/10/02 07:58:44;;;;;;;9.98;3.83;;;;;;;37.38;27.66;98150.00;4910964;29;20056;-74
2022/10/02 08:01:25;;;;;;;12.23;4.25;;;;;;;37.30;26.74;98138.06;4912004;29;20059;-72
2022/10/02 08:04:34;;;;;;;6.90;4.30;;;;;;;37.49;26.93;98133.94;4912842;29;20500;-73
2022/10/02 08:07:23;;;;;;;7.70;2.15;;;;;;;37.66;25.36;98128.66;4896585;29;20372;-73
2022/10/02 08:10:12;;;;;;;5.40;2.92;;;;;;;37.83;25.96;98124.94;4894777;29;20041;-74
2022/10/02 08:13:08;;;;;;;5.28;3.38;;;;;;;37.55;27.00;98121.09;4902098;29;20036;-73
2022/10/02 08:15:55;;;;;;;7.88;3.75;;;;;;;37.85;27.01;98113.31;4913065;29;20060;-70
2022/10/02 08:18:54;;;;;;;5.70;2.90;;;;;;;37.65;27.61;98118.69;4913276;29;20059;-73
2022/10/02 08:21:45;;;;;;;6.32;3.00;;;;;;;37.44;26.95;98108.41;4896967;29;20059;-73
2022/10/02 08:24:44;;;;;;;4.53;2.78;;;;;;;37.37;25.05;98100.81;4911426;29;20052;-73
2022/10/02 08:28:22;;;;;;;7.53;2.50;;;;;;;37.08;25.46;98106.53;4909213;29;20405;-72
2022/10/02 08:31:19;;;;;;;7.28;2.75;;;;;;;37.18;28.22;98097.31;4912466;29;20105;-72
2022/10/02 08:33:56;;;;;;;5.03;2.92;;;;;;;37.18;26.47;98097.31;4912752;29;20052;-73
2022/10/02 08:37:01;;;;;;;7.75;2.85;;;;;;;37.03;26.29;98096.59;4911806;29;20056;-73
2022/10/02 08:40:13;;;;;;;7.00;2.53;;;;;;;37.15;26.83;98089.75;4912925;29;20051;-74
2022/10/02 08:43:43;;;;;;;5.97;2.70;;;;;;;37.27;27.70;98094.09;4912385;29;20056;-72
2022/10/02 08:46:50;;;;;;;5.47;2.88;;;;;;;36.96;27.21;98084.63;4912391;29;20063;-71
2022/10/02 08:49:55;;;;;;;6.55;2.60;;;;;;;36.75;28.28;98080.72;4898169;29;20658;-74
2022/10/02 08:53:24;;;;;;;5.15;2.67;;;;;;;36.96;27.48;98076.25;4912307;29;20501;-73
2022/10/02 08:57:00;;;;;;;7.15;3.10;;;;;;;36.95;26.63;98072.63;4881301;29;20139;-74
2022/10/02 09:00:19;;;;;;;9.65;2.78;;;;;;;37.11;29.19;98074.97;4867233;29;20052;-72
2022/10/02 09:03:32;;;;;;;3.63;1.98;;;;;;;37.01;27.18;98065.44;4892823;29;20049;-72
2022/10/02 09:06:23;;;;;;;6.85;2.50;;;;;;;36.68;26.63;98061.16;4893117;29;20487;-71
2022/10/02 09:09:46;;;;;;;7.28;3.33;;;;;;;36.72;27.79;98056.34;4893049;29;20131;-72
2022/10/02 09:12:36;;;;;;;9.07;2.95;;;;;;;36.82;29.20;98052.72;4862054;29;20052;-73
2022/10/02 09:15:50;;;;;;;8.15;3.42;;;;;;;36.85;28.46;98045.53;4877992;29;20064;-73
2022/10/02 09:19:19;;;;;;;12.45;3.53;;;;;;;36.48;27.11;98044.03;4892504;29;20048;-72
2022/10/02 09:22:46;;;;;;;7.25;3.42;;;;;;;36.40;27.72;98040.47;4892067;29;20520;-73
2022/10/02 09:25:58;;;;;;;6.85;3.15;;;;;;;36.70;27.39;98036.38;4892116;29;20044;-71
2022/10/02 09:29:18;;;;;;;4.68;2.90;;;;;;;36.70;28.19;98035.59;4858438;29;20057;-73
2022/10/02 09:32:23;;;;;;;8.50;2.60;;;;;;;36.62;26.98;98032.00;4874328;29;20063;-73
2022/10/02 09:36:00;;;;;;;5.25;2.20;;;;;;;36.61;26.70;98030.41;4891207;29;20062;-72
2022/10/02 09:38:50;;;;;;;6.03;2.90;;;;;;;36.54;28.09;98024.88;4911721;29;20051;-72
2022/10/02 09:42:10;;;;;;;14.02;2.63;;;;;;;36.70;27.51;98018.84;4888684;29;20055;-72
2022/10/02 09:45:17;;;;;;;11.07;2.85;;;;;;;36.64;26.15;98007.25;4891450;29;20048;-73
2022/10/02 09:48:36;;;;;;;8.25;2.83;;;;;;;36.44;26.48;98018.91;4891815;29;20111;-73
2022/10/02 09:52:02;;;;;;;6.50;2.53;;;;;;;36.60;26.90;98012.84;4901305;29;20056;-73
2022/10/02 09:55:02;;;;;;;8.18;2.65;;;;;;;36.75;26.78;98012.81;4923280;29;20058;-73
2022/10/02 09:58:13;;;;;;;6.47;2.58;;;;;;;36.37;26.11;98004.94;4930519;29;20642;-73
2022/10/02 10:01:13;;;;;;;10.05;2.72;;;;;;;36.30;27.22;98009.75;4912999;29;20039;-71
2022/10/02 10:04:20;;;;;;;3.72;2.50;;;;;;;36.42;27.53;98012.09;4914396;29;20099;-71
2022/10/02 10:07:07;;;;;;;7.10;2.40;;;;;;;36.45;27.69;98012.09;4875819;29;20052;-73
2022/10/02 10:10:20;;;;;;;11.40;2.75;;;;;;;36.59;28.23;98010.44;4892234;29;20497;-73
2022/10/02 10:13:44;;;;;;;8.93;2.80;;;;;;;36.64;29.42;98007.25;4901699;29;20066;-72
2022/10/02 10:16:56;;;;;;;8.25;2.88;;;;;;;36.29;28.58;98002.56;4911024;29;20071;-73
2022/10/02 10:20:09;;;;;;;6.47;3.65;;;;;;;36.49;28.46;97997.31;4880525;29;20056;-71
2022/10/02 10:23:10;;;;;;;8.10;4.30;;;;;;;36.13;28.55;98000.97;4910737;29;20104;-72
2022/10/02 10:25:59;;;;;;;5.45;3.10;;;;;;;35.75;29.60;97992.28;4913054;29;20488;-74
2022/10/02 10:29:00;;;;;;;9.65;2.97;;;;;;;35.98;30.21;98002.22;4896600;29;20060;-72
2022/10/02 10:32:19;;;;;;;7.88;3.13;;;;;;;36.10;30.31;98001.81;4902849;29;20056;-73
2022/10/02 10:35:09;;;;;;;7.47;2.97;;;;;;;35.84;29.36;97983.50;4891058;29;20436;-71
2022/10/02 10:41:52;;;;;;;7.30;3.33;;;;;;;36.02;30.22;97989.84;4891153;29;20052;-71
2022/10/02 10:44:59;;;;;;;6.55;3.17;;;;;;;35.95;28.76;97983.50;4891387;29;20472;-72
2022/10/02 10:48:13;;;;;;;11.48;2.97;;;;;;;35.60;29.03;97983.09;4893920;29;20070;-74
2022/10/02 10:51:16;;;;;;;4.35;2.75;;;;;;;35.87;29.50;97982.72;4883378;29;20067;-72
2022/10/02 10:54:25;;;;;;;6.60;2.95;;;;;;;36.00;29.26;97986.66;4858638;29;20124;-73
2022/10/02 10:57:25;;;;;;;4.57;2.63;;;;;;;35.95;30.37;97984.28;4870744;29;20104;-72
2022/10/02 11:00:36;;;;;;;9.75;2.85;;;;;;;35.76;29.80;97984.72;4872316;29;20049;-72
2022/10/02 11:03:28;;;;;;;6.03;3.35;;;;;;;35.91;30.27;97988.28;4872192;29;20057;-74
2022/10/02 11:06:51;;;;;;;10.13;3.00;;;;;;;35.80;30.84;97982.72;4535001;29;10000108;-74
2022/10/02 11:09:51;;;;;;;7.82;3.00;;;;;;;35.65;30.89;97979.88;4871847;29;20053;-72
2022/10/02 11:13:18;;;;;;;7.15;3.15;;;;;;;35.57;31.19;97981.09;4872773;29;20112;-71
2022/10/02 11:16:24;;;;;;;10.85;3.30;;;;;;;35.16;30.78;97978.66;4872655;29;20057;-70
2022/10/02 11:19:31;;;;;;;9.70;3.50;;;;;;;35.43;30.82;97975.53;4871937;29;20700;-70
2022/10/02 11:22:54;;;;;;;11.98;3.30;;;;;;;35.40;31.27;97974.31;4871593;29;20064;-70
2022/10/02 11:26:04;;;;;;;12.23;3.80;;;;;;;35.48;32.16;97980.69;4833111;29;20198;-71
2022/10/02 11:29:07;;;;;;;9.75;3.42;;;;;;;35.44;33.56;97982.69;4871550;29;20057;-70
2022/10/02 11:32:27;;;;;;;11.60;4.10;;;;;;;35.23;32.51;97978.69;4529872;29;10000092;-72
2022/10/02 11:35:43;;;;;;;11.57;3.50;;;;;;;34.99;33.17;97982.22;4867815;29;20057;-74
2022/10/02 11:38:55;;;;;;;7.07;4.07;;;;;;;34.83;31.60;97977.00;4868800;29;20139;-70
2022/10/02 11:42:25;;;;;;;18.73;3.80;;;;;;;34.96;32.83;97975.44;4867347;29;20148;-70
2022/10/02 11:45:46;;;;;;;8.02;3.70;;;;;;;34.94;32.75;97982.59;4866996;29;20495;-69
2022/10/02 11:49:25;;;;;;;10.23;3.50;;;;;;;34.79;32.83;97979.78;4868283;29;20049;-69
2022/10/02 11:52:10;;;;;;;12.95;3.55;;;;;;;34.72;31.36;97988.13;4894361;29;20056;-73
2022/10/02 11:55:28;;;;;;;17.77;4.10;;;;;;;34.55;31.36;97988.81;4855742;29;20116;-72
2022/10/02 11:58:40;;;;;;;11.40;3.75;;;;;;;34.85;32.47;97996.91;4870207;29;20060;-71
2022/10/02 12:01:38;;;;;;;9.77;3.92;;;;;;;34.73;32.32;97989.72;4888348;29;20052;-71
2022/10/02 12:04:39;;;;;;;15.52;3.72;;;;;;;34.73;32.60;97983.34;4878481;29;20157;-71
2022/10/02 12:08:00;;;;;;;8.70;3.75;;;;;;;34.66;33.31;97987.69;4890657;29;20064;-71
2022/10/02 12:10:58;;;;;;;14.00;4.22;;;;;;;34.44;32.64;97986.78;4849342;29;20052;-71
2022/10/02 12:14:09;;;;;;;7.40;3.78;;;;;;;34.42;32.65;97980.03;4886043;29;20059;-70
2022/10/02 12:17:19;;;;;;;7.47;3.60;;;;;;;34.52;32.67;97984.84;4889023;29;20059;-69
2022/10/02 12:27:44;;;;;;;9.48;3.75;;;;;;;34.26;33.61;97977.53;4890441;29;20044;-71
2022/10/02 12:31:09;;;;;;;11.07;4.05;;;;;;;34.17;34.02;97980.69;4809291;29;20058;-70
2022/10/02 12:34:30;;;;;;;20.48;5.75;;;;;;;34.26;34.29;97983.13;4888315;29;20879;-70
2022/10/02 12:37:31;;;;;;;9.93;4.38;;;;;;;34.05;36.30;97992.94;4847766;29;20067;-73
2022/10/02 12:40:42;;;;;;;14.40;5.05;;;;;;;33.99;37.32;97997.25;4892913;29;20063;-73
2022/10/02 12:43:44;;;;;;;19.63;5.40;;;;;;;33.84;37.71;97990.81;4893061;29;20045;-73
2022/10/02 12:47:08;;;;;;;7.43;4.53;;;;;;;33.66;37.59;97999.00;4877147;29;20056;-72
2022/10/02 12:50:10;;;;;;;11.00;4.65;;;;;;;33.44;38.34;97994.41;4893641;29;20049;-69
2022/10/02 12:53:36;;;;;;;12.93;5.60;;;;;;;33.34;39.85;97991.19;4877041;29;20044;-70
2022/10/02 12:56:34;;;;;;;12.75;5.00;;;;;;;33.34;38.88;97985.63;4874128;29;20073;-69
2022/10/02 12:59:19;;;;;;;14.95;4.97;;;;;;;33.38;38.25;97995.97;4874338;29;20060;-70
2022/10/02 13:02:31;;;;;;;15.45;5.53;;;;;;;33.36;38.51;97993.56;4874498;29;20071;-70
2022/10/02 13:06:10;;;;;;;21.77;5.28;;;;;;;33.06;39.73;97999.22;4874286;29;20045;-70
2022/10/02 13:09:11;;;;;;;16.38;5.80;;;;;;;32.95;40.28;97997.13;4875009;29;20446;-70
2022/10/02 13:12:04;;;;;;;14.98;6.05;;;;;;;32.87;41.18;98003.00;4858664;29;20056;-69
2022/10/02 13:15:28;;;;;;;16.90;5.93;;;;;;;32.66;41.45;98003.56;4862633;29;20057;-69
2022/10/02 13:18:33;;;;;;;36.13;8.68;;;;;;;32.48;43.56;97994.94;4876657;29;20084;-69
2022/10/02 13:21:57;;;;;;;22.48;7.57;;;;;;;32.24;44.10;98001.78;4876476;29;20056;-69
2022/10/02 13:25:33;;;;;;;13.35;6.47;;;;;;;32.13;43.99;97994.09;4874268;29;20052;-69
2022/10/02 13:28:39;;;;;;;14.65;5.78;;;;;;;31.94;45.38;97996.97;4852563;29;20057;-71
2022/10/02 13:32:05;;;;;;;19.45;6.95;;;;;;;31.88;45.40;98002.03;4847501;29;20376;-69
2022/10/02 13:35:17;;;;;;;22.70;6.88;;;;;;;31.81;46.63;97999.16;4869882;29;20056;-68
2022/10/02 13:38:27;;;;;;;17.48;6.65;;;;;;;31.69;46.07;98000.16;4871708;29;20049;-67
2022/10/02 13:41:23;;;;;;;29.73;8.00;;;;;;;31.60;46.95;98003.19;4871295;29;20060;-68
2022/10/02 13:44:35;;;;;;;20.37;6.97;;;;;;;31.51;47.41;98007.38;4857078;29;20045;-68
2022/10/02 13:47:42;;;;;;;21.00;6.35;;;;;;;31.40;47.63;97996.09;4871476;29;20076;-69
2022/10/02 13:50:51;;;;;;;;;;;;;;;31.43;48.60;97998.09;4853436;29;20540;-69
2022/10/02 13:53:39;;;;;;;28.83;7.43;;;;;;;31.36;46.65;98004.34;4868559;29;20371;-68
2022/10/02 13:56:37;;;;;;;22.90;8.05;;;;;;;31.27;48.63;97998.25;4908001;29;20055;-70
2022/10/02 13:59:50;;;;;;;24.35;7.57;;;;;;;31.37;47.48;98002.38;4908387;29;20062;-68
2022/10/02 14:03:09;;;;;;;26.48;8.00;;;;;;;31.33;47.67;98004.28;4891671;29;20068;-69
2022/10/02 14:05:58;;;;;;;27.90;7.70;;;;;;;31.22;48.40;98009.63;4888667;29;20495;-70
2022/10/02 14:09:08;;;;;;;23.17;7.43;;;;;;;31.16;48.92;98011.91;4892927;29;20056;-71
2022/10/02 14:12:24;;;;;;;25.60;8.93;;;;;;;31.10;48.45;98016.16;4892924;29;20044;-71
2022/10/02 14:15:30;;;;;;;54.20;15.00;;;;;;;31.05;48.96;98015.66;4884193;29;20136;-73
2022/10/02 14:18:52;;;;;;;51.03;17.42;;;;;;;30.99;49.49;98026.22;4888651;29;20099;-69
2022/10/02 14:21:34;;;;;;;57.35;18.65;;;;;;;30.94;49.70;98027.34;4890142;29;20048;-71
2022/10/02 14:24:59;;;;;;;76.30;24.23;;;;;;;30.99;49.92;98023.47;4864767;29;20113;-72
2022/10/02 14:28:06;;;;;;;87.72;29.58;;;;;;;30.83;50.28;98024.31;4873216;29;20165;-70
2022/10/02 14:31:28;;;;;;;99.93;32.75;;;;;;;30.87;50.89;98026.38;4910449;29;20070;-70
2022/10/02 14:34:52;;;;;;;85.20;30.92;;;;;;;30.82;50.56;98024.69;4551223;29;10000208;-70